Kaprijke, Belgium
Current Conditions -  °F | °C
As of 7:25 PM on Tuesday 27 Jan 2015 (Local Time) from EHFS Reporting Station
Overcast Overcast  
Wind Chill: 37°   Ceiling: 3100
Heat Index: 43°   Visibility: 6mi
Dew Point: 41°   Wind: 9mph
Humidity: 93%   Direction: 240°WSW
Pressure: 30.21"   Gusts: NA
Location:  51.22°N, 3.62°E
Report Text: EHFS 271825Z AUTO 24008KT 9999 OVC031/// 06/05 Q1023
Loading
Personal Weather Stations






























Interactive Weather Map New forecast layout! Learn more

10-Day Weather Forecast

Advertisements
Track Severe Weather on mobile